sensor_id;sensor_type;location;lat;lon;timestamp;pressure;altitude;pressure_sealevel;temperature;humidity
40592;BME280;26301;42.832;23.918;2022-11-11T00:00:32;94291.94;;;4.90;100.00
40592;BME280;26301;42.832;23.918;2022-11-11T00:02:58;94300.66;;;5.04;100.00
40592;BME280;26301;42.832;23.918;2022-11-11T00:05:25;94303.91;;;4.98;100.00
40592;BME280;26301;42.832;23.918;2022-11-11T00:07:55;94285.41;;;4.88;100.00
40592;BME280;26301;42.832;23.918;2022-11-11T00:10:27;94297.88;;;4.91;100.00
40592;BME280;26301;42.832;23.918;2022-11-11T00:12:53;94287.16;;;4.87;100.00
40592;BME280;26301;42.832;23.918;2022-11-11T00:15:18;94267.38;;;4.81;100.00
40592;BME280;26301;42.832;23.918;2022-11-11T00:17:44;94286.81;;;4.90;100.00
40592;BME280;26301;42.832;23.918;2022-11-11T00:20:29;94264.47;;;4.84;100.00
40592;BME280;26301;42.832;23.918;2022-11-11T00:23:21;94279.88;;;4.99;100.00
40592;BME280;26301;42.832;23.918;2022-11-11T00:26:07;94291.94;;;5.13;100.00
40592;BME280;26301;42.832;23.918;2022-11-11T00:28:33;94280.63;;;5.22;100.00
40592;BME280;26301;42.832;23.918;2022-11-11T00:31:08;94205.44;;;4.63;100.00
40592;BME280;26301;42.832;23.918;2022-11-11T00:33:34;94280.97;;;5.19;100.00
40592;BME280;26301;42.832;23.918;2022-11-11T00:36:00;94257.94;;;5.19;100.00
40592;BME280;26301;42.832;23.918;2022-11-11T00:38:27;94282.25;;;5.38;100.00
40592;BME280;26301;42.832;23.918;2022-11-11T00:41:21;94281.03;;;5.49;100.00
40592;BME280;26301;42.832;23.918;2022-11-11T00:43:47;94275.75;;;5.50;100.00
40592;BME280;26301;42.832;23.918;2022-11-11T00:46:15;94274.41;;;5.55;100.00
40592;BME280;26301;42.832;23.918;2022-11-11T00:48:59;94256.81;;;5.52;100.00
40592;BME280;26301;42.832;23.918;2022-11-11T00:51:43;94278.75;;;5.69;100.00
40592;BME280;26301;42.832;23.918;2022-11-11T00:54:09;94287.94;;;5.78;100.00
40592;BME280;26301;42.832;23.918;2022-11-11T00:56:36;94250.44;;;5.62;100.00
40592;BME280;26301;42.832;23.918;2022-11-11T00:59:06;94278.03;;;5.90;100.00
40592;BME280;26301;42.832;23.918;2022-11-11T01:01:35;94266.97;;;5.89;100.00
40592;BME280;26301;42.832;23.918;2022-11-11T01:04:01;94245.59;;;5.82;100.00
40592;BME280;26301;42.832;23.918;2022-11-11T01:06:27;94238.75;;;5.89;100.00
40592;BME280;26301;42.832;23.918;2022-11-11T01:08:53;94267.25;;;6.09;100.00
40592;BME280;26301;42.832;23.918;2022-11-11T01:11:21;94235.81;;;5.92;100.00
40592;BME280;26301;42.832;23.918;2022-11-11T01:13:48;94237.91;;;5.97;100.00
40592;BME280;26301;42.832;23.918;2022-11-11T01:16:19;94240.00;;;6.08;100.00
40592;BME280;26301;42.832;23.918;2022-11-11T01:18:46;94260.94;;;6.27;100.00
40592;BME280;26301;42.832;23.918;2022-11-11T01:21:26;94253.22;;;6.27;100.00
40592;BME280;26301;42.832;23.918;2022-11-11T01:23:52;94241.28;;;6.19;100.00
40592;BME280;26301;42.832;23.918;2022-11-11T01:26:28;94236.69;;;6.29;100.00
40592;BME280;26301;42.832;23.918;2022-11-11T01:28:55;94261.47;;;6.44;100.00
40592;BME280;26301;42.832;23.918;2022-11-11T01:31:22;94266.34;;;6.53;100.00
40592;BME280;26301;42.832;23.918;2022-11-11T01:33:48;94261.81;;;6.55;100.00
40592;BME280;26301;42.832;23.918;2022-11-11T01:36:17;94227.28;;;6.36;100.00
40592;BME280;26301;42.832;23.918;2022-11-11T01:38:43;94247.66;;;6.59;100.00
40592;BME280;26301;42.832;23.918;2022-11-11T01:41:16;94208.22;;;6.46;100.00
40592;BME280;26301;42.832;23.918;2022-11-11T01:44:39;94243.59;;;6.72;100.00
40592;BME280;26301;42.832;23.918;2022-11-11T01:46:54;94252.19;;;6.85;100.00
40592;BME280;26301;42.832;23.918;2022-11-11T01:49:50;94248.53;;;6.95;100.00
40592;BME280;26301;42.832;23.918;2022-11-11T01:55:12;94244.25;;;7.02;100.00
40592;BME280;26301;42.832;23.918;2022-11-11T01:57:48;94253.00;;;7.07;100.00
40592;BME280;26301;42.832;23.918;2022-11-11T02:00:17;94244.41;;;7.00;100.00
40592;BME280;26301;42.832;23.918;2022-11-11T02:03:05;94246.06;;;7.08;100.00
40592;BME280;26301;42.832;23.918;2022-11-11T02:05:32;94252.84;;;7.16;100.00
40592;BME280;26301;42.832;23.918;2022-11-11T02:08:10;94224.72;;;7.07;100.00
40592;BME280;26301;42.832;23.918;2022-11-11T02:10:39;94245.75;;;7.18;100.00
40592;BME280;26301;42.832;23.918;2022-11-11T02:13:14;94243.41;;;7.23;100.00
40592;BME280;26301;42.832;23.918;2022-11-11T02:15:59;94247.81;;;7.29;100.00
40592;BME280;26301;42.832;23.918;2022-11-11T02:18:26;94220.00;;;7.11;100.00
40592;BME280;26301;42.832;23.918;2022-11-11T02:20:52;94253.19;;;7.34;100.00
40592;BME280;26301;42.832;23.918;2022-11-11T02:23:24;94218.88;;;7.20;100.00
40592;BME280;26301;42.832;23.918;2022-11-11T02:25:54;94238.19;;;7.38;100.00
40592;BME280;26301;42.832;23.918;2022-11-11T02:28:22;94250.31;;;7.50;100.00
40592;BME280;26301;42.832;23.918;2022-11-11T02:30:50;94247.91;;;7.49;100.00
40592;BME280;26301;42.832;23.918;2022-11-11T02:33:16;94234.66;;;7.45;100.00
40592;BME280;26301;42.832;23.918;2022-11-11T02:35:44;94242.63;;;7.57;100.00
40592;BME280;26301;42.832;23.918;2022-11-11T02:38:11;94248.19;;;7.61;100.00
40592;BME280;26301;42.832;23.918;2022-11-11T02:40:39;94230.53;;;7.51;100.00
40592;BME280;26301;42.832;23.918;2022-11-11T02:43:26;94248.19;;;7.61;100.00
40592;BME280;26301;42.832;23.918;2022-11-11T02:45:52;94237.72;;;7.62;100.00
40592;BME280;26301;42.832;23.918;2022-11-11T02:48:18;94223.22;;;7.54;100.00
40592;BME280;26301;42.832;23.918;2022-11-11T02:50:43;94224.22;;;7.53;100.00
40592;BME280;26301;42.832;23.918;2022-11-11T02:53:09;94231.81;;;7.68;100.00
40592;BME280;26301;42.832;23.918;2022-11-11T02:55:35;94248.91;;;7.83;100.00
40592;BME280;26301;42.832;23.918;2022-11-11T02:58:01;94256.66;;;7.89;100.00
40592;BME280;26301;42.832;23.918;2022-11-11T03:00:27;94223.72;;;7.71;100.00
40592;BME280;26301;42.832;23.918;2022-11-11T03:02:52;94251.50;;;7.89;100.00
40592;BME280;26301;42.832;23.918;2022-11-11T03:05:18;94241.84;;;7.98;100.00
40592;BME280;26301;42.832;23.918;2022-11-11T03:07:44;94238.50;;;8.04;100.00
40592;BME280;26301;42.832;23.918;2022-11-11T03:10:10;94238.13;;;8.00;100.00
40592;BME280;26301;42.832;23.918;2022-11-11T03:12:36;94243.44;;;7.99;100.00
40592;BME280;26301;42.832;23.918;2022-11-11T03:15:02;94239.72;;;8.08;100.00
40592;BME280;26301;42.832;23.918;2022-11-11T03:17:28;94205.22;;;7.96;100.00
40592;BME280;26301;42.832;23.918;2022-11-11T03:20:13;94238.53;;;8.11;100.00
40592;BME280;26301;42.832;23.918;2022-11-11T03:25:27;94207.41;;;7.99;100.00
40592;BME280;26301;42.832;23.918;2022-11-11T03:28:05;94198.31;;;7.96;100.00
40592;BME280;26301;42.832;23.918;2022-11-11T03:30:31;94239.53;;;8.16;100.00
40592;BME280;26301;42.832;23.918;2022-11-11T03:32:59;94237.97;;;8.15;100.00
40592;BME280;26301;42.832;23.918;2022-11-11T03:35:25;94205.84;;;7.98;100.00
40592;BME280;26301;42.832;23.918;2022-11-11T03:37:50;94224.50;;;8.13;100.00
40592;BME280;26301;42.832;23.918;2022-11-11T03:40:34;94221.31;;;8.11;100.00
40592;BME280;26301;42.832;23.918;2022-11-11T03:43:00;94206.84;;;8.04;100.00
40592;BME280;26301;42.832;23.918;2022-11-11T03:45:26;94227.06;;;8.13;100.00
40592;BME280;26301;42.832;23.918;2022-11-11T03:47:52;94213.97;;;8.08;100.00
40592;BME280;26301;42.832;23.918;2022-11-11T03:50:20;94226.84;;;8.15;100.00
40592;BME280;26301;42.832;23.918;2022-11-11T03:52:46;94221.69;;;8.08;100.00
40592;BME280;26301;42.832;23.918;2022-11-11T03:55:12;94209.94;;;7.86;100.00
40592;BME280;26301;42.832;23.918;2022-11-11T03:57:42;94218.84;;;7.83;100.00
40592;BME280;26301;42.832;23.918;2022-11-11T04:00:10;94224.78;;;7.84;100.00
40592;BME280;26301;42.832;23.918;2022-11-11T04:02:36;94198.94;;;7.64;100.00
40592;BME280;26301;42.832;23.918;2022-11-11T04:05:20;94223.28;;;7.61;100.00
40592;BME280;26301;42.832;23.918;2022-11-11T04:08:16;94186.91;;;7.29;100.00
40592;BME280;26301;42.832;23.918;2022-11-11T04:11:07;94217.44;;;7.46;100.00
40592;BME280;26301;42.832;23.918;2022-11-11T04:13:34;94219.41;;;7.37;100.00
40592;BME280;26301;42.832;23.918;2022-11-11T04:16:19;94224.31;;;7.32;100.00
40592;BME280;26301;42.832;23.918;2022-11-11T04:18:44;94217.72;;;7.23;100.00
40592;BME280;26301;42.832;23.918;2022-11-11T04:21:28;94230.19;;;7.26;100.00
40592;BME280;26301;42.832;23.918;2022-11-11T04:24:17;94222.63;;;7.18;100.00
40592;BME280;26301;42.832;23.918;2022-11-11T04:27:05;94221.03;;;7.17;100.00
40592;BME280;26301;42.832;23.918;2022-11-11T04:29:31;94200.59;;;7.02;100.00
40592;BME280;26301;42.832;23.918;2022-11-11T04:32:00;94229.44;;;7.04;100.00
40592;BME280;26301;42.832;23.918;2022-11-11T04:34:56;94226.81;;;6.97;100.00
40592;BME280;26301;42.832;23.918;2022-11-11T04:37:23;94206.19;;;6.84;100.00
40592;BME280;26301;42.832;23.918;2022-11-11T04:39:49;94238.53;;;7.06;100.00
40592;BME280;26301;42.832;23.918;2022-11-11T04:42:33;94245.59;;;6.98;100.00
40592;BME280;26301;42.832;23.918;2022-11-11T04:44:59;94241.31;;;7.05;100.00
40592;BME280;26301;42.832;23.918;2022-11-11T04:48:02;94236.78;;;7.07;100.00
40592;BME280;26301;42.832;23.918;2022-11-11T04:50:40;94220.28;;;6.95;100.00
40592;BME280;26301;42.832;23.918;2022-11-11T04:53:08;94228.41;;;6.98;100.00
40592;BME280;26301;42.832;23.918;2022-11-11T04:55:35;94210.75;;;6.88;100.00
40592;BME280;26301;42.832;23.918;2022-11-11T04:58:22;94224.66;;;7.01;100.00
40592;BME280;26301;42.832;23.918;2022-11-11T05:00:48;94238.16;;;7.09;100.00
40592;BME280;26301;42.832;23.918;2022-11-11T05:03:14;94244.34;;;7.15;100.00
40592;BME280;26301;42.832;23.918;2022-11-11T05:06:01;94249.16;;;7.25;100.00
40592;BME280;26301;42.832;23.918;2022-11-11T05:08:48;94238.88;;;7.25;100.00
40592;BME280;26301;42.832;23.918;2022-11-11T05:11:28;94253.75;;;7.29;100.00
40592;BME280;26301;42.832;23.918;2022-11-11T05:13:56;94246.66;;;7.31;100.00
40592;BME280;26301;42.832;23.918;2022-11-11T05:16:47;94243.88;;;7.33;100.00
40592;BME280;26301;42.832;23.918;2022-11-11T05:19:32;94221.25;;;7.22;100.00
40592;BME280;26301;42.832;23.918;2022-11-11T05:24:54;94255.03;;;7.47;100.00
40592;BME280;26301;42.832;23.918;2022-11-11T05:27:38;94238.97;;;7.38;100.00
40592;BME280;26301;42.832;23.918;2022-11-11T05:30:05;94263.59;;;7.54;100.00
40592;BME280;26301;42.832;23.918;2022-11-11T05:32:31;94264.97;;;7.56;100.00
40592;BME280;26301;42.832;23.918;2022-11-11T05:34:56;94247.13;;;7.48;100.00
40592;BME280;26301;42.832;23.918;2022-11-11T05:37:23;94274.16;;;7.72;100.00
40592;BME280;26301;42.832;23.918;2022-11-11T05:39:48;94255.75;;;7.69;100.00
40592;BME280;26301;42.832;23.918;2022-11-11T05:42:14;94273.66;;;7.84;100.00
40592;BME280;26301;42.832;23.918;2022-11-11T05:44:40;94252.66;;;7.80;100.00
40592;BME280;26301;42.832;23.918;2022-11-11T05:47:06;94281.41;;;7.97;100.00
40592;BME280;26301;42.832;23.918;2022-11-11T05:49:32;94259.00;;;7.84;100.00
40592;BME280;26301;42.832;23.918;2022-11-11T05:51:58;94280.25;;;7.99;100.00
40592;BME280;26301;42.832;23.918;2022-11-11T05:54:24;94270.91;;;7.92;100.00
40592;BME280;26301;42.832;23.918;2022-11-11T05:56:50;94301.84;;;8.05;100.00
40592;BME280;26301;42.832;23.918;2022-11-11T05:59:15;94303.88;;;8.10;100.00
40592;BME280;26301;42.832;23.918;2022-11-11T06:01:41;94299.50;;;8.10;100.00
40592;BME280;26301;42.832;23.918;2022-11-11T06:04:07;94315.56;;;8.12;100.00
40592;BME280;26301;42.832;23.918;2022-11-11T06:06:34;94293.75;;;8.08;100.00
40592;BME280;26301;42.832;23.918;2022-11-11T06:09:00;94327.31;;;8.28;100.00
40592;BME280;26301;42.832;23.918;2022-11-11T06:11:27;94319.97;;;8.25;100.00
40592;BME280;26301;42.832;23.918;2022-11-11T06:13:53;94299.13;;;8.13;100.00
40592;BME280;26301;42.832;23.918;2022-11-11T06:16:19;94336.72;;;8.42;100.00
40592;BME280;26301;42.832;23.918;2022-11-11T06:18:45;94336.91;;;8.47;100.00
40592;BME280;26301;42.832;23.918;2022-11-11T06:21:11;94340.50;;;8.53;100.00
40592;BME280;26301;42.832;23.918;2022-11-11T06:23:37;94326.81;;;8.46;100.00
40592;BME280;26301;42.832;23.918;2022-11-11T06:26:03;94360.56;;;8.64;100.00
40592;BME280;26301;42.832;23.918;2022-11-11T06:29:03;94362.34;;;8.70;100.00
40592;BME280;26301;42.832;23.918;2022-11-11T06:31:29;94351.81;;;8.65;100.00
40592;BME280;26301;42.832;23.918;2022-11-11T06:33:55;94370.72;;;8.79;100.00
40592;BME280;26301;42.832;23.918;2022-11-11T06:36:21;94353.22;;;8.68;100.00
40592;BME280;26301;42.832;23.918;2022-11-11T06:38:46;94371.53;;;8.93;100.00
40592;BME280;26301;42.832;23.918;2022-11-11T06:41:13;94376.91;;;9.05;100.00
40592;BME280;26301;42.832;23.918;2022-11-11T06:43:40;94378.91;;;9.09;100.00
40592;BME280;26301;42.832;23.918;2022-11-11T06:46:12;94362.44;;;9.10;100.00
40592;BME280;26301;42.832;23.918;2022-11-11T06:48:40;94398.75;;;9.35;100.00
40592;BME280;26301;42.832;23.918;2022-11-11T06:51:08;94367.03;;;9.22;100.00
40592;BME280;26301;42.832;23.918;2022-11-11T06:53:35;94393.81;;;9.41;100.00
40592;BME280;26301;42.832;23.918;2022-11-11T06:56:01;94385.69;;;9.44;100.00
40592;BME280;26301;42.832;23.918;2022-11-11T06:58:27;94399.59;;;9.56;100.00
40592;BME280;26301;42.832;23.918;2022-11-11T07:00:53;94402.16;;;9.56;100.00
40592;BME280;26301;42.832;23.918;2022-11-11T07:03:20;94395.22;;;9.50;100.00
40592;BME280;26301;42.832;23.918;2022-11-11T07:05:46;94401.97;;;9.64;100.00
40592;BME280;26301;42.832;23.918;2022-11-11T07:08:14;94384.72;;;9.58;100.00
40592;BME280;26301;42.832;23.918;2022-11-11T07:10:45;94406.16;;;9.78;100.00
40592;BME280;26301;42.832;23.918;2022-11-11T07:13:13;94402.78;;;9.65;100.00
40592;BME280;26301;42.832;23.918;2022-11-11T07:15:40;94393.03;;;9.47;100.00
40592;BME280;26301;42.832;23.918;2022-11-11T07:18:05;94415.06;;;9.62;100.00
40592;BME280;26301;42.832;23.918;2022-11-11T07:20:31;94404.34;;;9.52;100.00
40592;BME280;26301;42.832;23.918;2022-11-11T07:22:57;94404.56;;;9.51;100.00
40592;BME280;26301;42.832;23.918;2022-11-11T07:25:23;94427.16;;;9.62;100.00
40592;BME280;26301;42.832;23.918;2022-11-11T07:27:49;94404.53;;;9.44;100.00
40592;BME280;26301;42.832;23.918;2022-11-11T07:30:14;94432.34;;;9.62;100.00
40592;BME280;26301;42.832;23.918;2022-11-11T07:32:46;94440.47;;;9.66;100.00
40592;BME280;26301;42.832;23.918;2022-11-11T07:35:13;94420.81;;;9.51;100.00
40592;BME280;26301;42.832;23.918;2022-11-11T07:37:40;94430.13;;;9.52;100.00
40592;BME280;26301;42.832;23.918;2022-11-11T07:40:07;94443.84;;;9.59;100.00
40592;BME280;26301;42.832;23.918;2022-11-11T07:42:38;94445.63;;;9.59;100.00
40592;BME280;26301;42.832;23.918;2022-11-11T07:45:04;94422.59;;;9.44;100.00
40592;BME280;26301;42.832;23.918;2022-11-11T07:47:30;94451.38;;;9.61;100.00
40592;BME280;26301;42.832;23.918;2022-11-11T07:49:56;94453.97;;;9.54;100.00
40592;BME280;26301;42.832;23.918;2022-11-11T07:52:22;94433.91;;;9.43;100.00
40592;BME280;26301;42.832;23.918;2022-11-11T07:54:49;94447.41;;;9.45;100.00
40592;BME280;26301;42.832;23.918;2022-11-11T07:57:14;94454.16;;;9.53;100.00
40592;BME280;26301;42.832;23.918;2022-11-11T07:59:40;94463.88;;;9.51;100.00
40592;BME280;26301;42.832;23.918;2022-11-11T08:02:09;94458.69;;;9.44;100.00
40592;BME280;26301;42.832;23.918;2022-11-11T08:04:35;94440.63;;;9.24;100.00
40592;BME280;26301;42.832;23.918;2022-11-11T08:07:01;94453.50;;;9.31;100.00
40592;BME280;26301;42.832;23.918;2022-11-11T08:09:27;94462.84;;;9.38;100.00
40592;BME280;26301;42.832;23.918;2022-11-11T08:11:52;94454.69;;;9.28;100.00
40592;BME280;26301;42.832;23.918;2022-11-11T08:14:36;94468.00;;;9.32;100.00
40592;BME280;26301;42.832;23.918;2022-11-11T08:17:02;94444.16;;;9.16;100.00
40592;BME280;26301;42.832;23.918;2022-11-11T08:19:27;94449.91;;;9.12;100.00
40592;BME280;26301;42.832;23.918;2022-11-11T08:21:53;94444.34;;;9.15;100.00
40592;BME280;26301;42.832;23.918;2022-11-11T08:24:20;94469.97;;;9.30;100.00
40592;BME280;26301;42.832;23.918;2022-11-11T08:26:46;94450.31;;;9.15;100.00
40592;BME280;26301;42.832;23.918;2022-11-11T08:29:12;94475.91;;;9.24;100.00
40592;BME280;26301;42.832;23.918;2022-11-11T08:31:38;94477.50;;;9.31;100.00
40592;BME280;26301;42.832;23.918;2022-11-11T08:34:04;94457.66;;;9.25;100.00
40592;BME280;26301;42.832;23.918;2022-11-11T08:36:30;94472.00;;;9.48;100.00
40592;BME280;26301;42.832;23.918;2022-11-11T08:38:55;94460.66;;;9.35;100.00
40592;BME280;26301;42.832;23.918;2022-11-11T08:41:22;94484.09;;;9.47;100.00
40592;BME280;26301;42.832;23.918;2022-11-11T08:43:51;94483.91;;;9.49;100.00
40592;BME280;26301;42.832;23.918;2022-11-11T08:46:17;94491.25;;;9.52;100.00
40592;BME280;26301;42.832;23.918;2022-11-11T08:48:43;94465.63;;;9.30;100.00
40592;BME280;26301;42.832;23.918;2022-11-11T08:51:09;94448.09;;;9.06;100.00
40592;BME280;26301;42.832;23.918;2022-11-11T08:53:35;94460.38;;;9.10;100.00
40592;BME280;26301;42.832;23.918;2022-11-11T08:56:01;94468.25;;;8.96;100.00
40592;BME280;26301;42.832;23.918;2022-11-11T08:58:28;94471.22;;;8.92;100.00
40592;BME280;26301;42.832;23.918;2022-11-11T09:00:53;94483.72;;;8.96;100.00
40592;BME280;26301;42.832;23.918;2022-11-11T09:03:19;94495.59;;;8.90;100.00
40592;BME280;26301;42.832;23.918;2022-11-11T09:05:45;94457.75;;;8.49;100.00
40592;BME280;26301;42.832;23.918;2022-11-11T09:08:12;94460.97;;;8.58;100.00
40592;BME280;26301;42.832;23.918;2022-11-11T09:10:37;94465.38;;;8.70;100.00
40592;BME280;26301;42.832;23.918;2022-11-11T09:13:03;94491.19;;;8.84;100.00
40592;BME280;26301;42.832;23.918;2022-11-11T09:15:30;94463.88;;;8.48;100.00
40592;BME280;26301;42.832;23.918;2022-11-11T09:17:56;94460.88;;;8.44;100.00
40592;BME280;26301;42.832;23.918;2022-11-11T09:20:22;94459.53;;;8.49;100.00
40592;BME280;26301;42.832;23.918;2022-11-11T09:22:48;94487.00;;;8.69;100.00
40592;BME280;26301;42.832;23.918;2022-11-11T09:25:14;94482.63;;;8.70;100.00
40592;BME280;26301;42.832;23.918;2022-11-11T09:27:41;94477.78;;;8.60;100.00
40592;BME280;26301;42.832;23.918;2022-11-11T09:30:08;94459.75;;;8.54;100.00
40592;BME280;26301;42.832;23.918;2022-11-11T09:32:35;94481.22;;;8.67;100.00
40592;BME280;26301;42.832;23.918;2022-11-11T09:35:02;94454.22;;;8.57;100.00
40592;BME280;26301;42.832;23.918;2022-11-11T09:37:28;94472.50;;;8.68;100.00
40592;BME280;26301;42.832;23.918;2022-11-11T09:39:53;94482.00;;;8.68;100.00
40592;BME280;26301;42.832;23.918;2022-11-11T09:42:36;94486.94;;;8.63;100.00
40592;BME280;26301;42.832;23.918;2022-11-11T09:48:04;94477.47;;;8.70;100.00
40592;BME280;26301;42.832;23.918;2022-11-11T09:50:30;94446.22;;;8.45;100.00
40592;BME280;26301;42.832;23.918;2022-11-11T09:53:12;94477.66;;;8.68;100.00
40592;BME280;26301;42.832;23.918;2022-11-11T09:55:45;94470.72;;;8.69;100.00
40592;BME280;26301;42.832;23.918;2022-11-11T09:58:23;94435.13;;;8.44;100.00
40592;BME280;26301;42.832;23.918;2022-11-11T10:00:59;94451.59;;;8.50;100.00
40592;BME280;26301;42.832;23.918;2022-11-11T10:03:28;94469.38;;;8.73;100.00
40592;BME280;26301;42.832;23.918;2022-11-11T10:06:01;94469.16;;;8.75;100.00
40592;BME280;26301;42.832;23.918;2022-11-11T10:08:42;94444.53;;;8.59;100.00
40592;BME280;26301;42.832;23.918;2022-11-11T10:11:14;94443.72;;;8.58;100.00
40592;BME280;26301;42.832;23.918;2022-11-11T10:13:43;94448.28;;;8.63;100.00
40592;BME280;26301;42.832;23.918;2022-11-11T10:21:50;94466.41;;;8.76;99.82
40592;BME280;26301;42.832;23.918;2022-11-11T10:24:35;94434.00;;;8.60;100.00
40592;BME280;26301;42.832;23.918;2022-11-11T10:27:11;94463.63;;;8.78;100.00
40592;BME280;26301;42.832;23.918;2022-11-11T10:29:42;94458.44;;;8.71;100.00
40592;BME280;26301;42.832;23.918;2022-11-11T10:34:44;94453.53;;;8.76;100.00
40592;BME280;26301;42.832;23.918;2022-11-11T10:37:24;94420.91;;;8.49;100.00
40592;BME280;26301;42.832;23.918;2022-11-11T10:43:23;94419.56;;;8.59;100.00
40592;BME280;26301;42.832;23.918;2022-11-11T10:48:57;94451.38;;;8.86;100.00
40592;BME280;26301;42.832;23.918;2022-11-11T10:51:32;94400.72;;;8.52;100.00
40592;BME280;26301;42.832;23.918;2022-11-11T10:54:13;94441.91;;;8.93;99.80
40592;BME280;26301;42.832;23.918;2022-11-11T10:59:52;94446.50;;;9.11;98.87
40592;BME280;26301;42.832;23.918;2022-11-11T11:02:25;94419.69;;;8.92;98.38
40592;BME280;26301;42.832;23.918;2022-11-11T11:04:57;94445.16;;;9.22;98.41
40592;BME280;26301;42.832;23.918;2022-11-11T11:07:36;94420.69;;;8.91;97.85
40592;BME280;26301;42.832;23.918;2022-11-11T11:10:17;94440.69;;;8.89;99.30
40592;BME280;26301;42.832;23.918;2022-11-11T11:12:51;94439.09;;;8.82;100.00
40592;BME280;26301;42.832;23.918;2022-11-11T11:15:22;94414.63;;;8.64;100.00
40592;BME280;26301;42.832;23.918;2022-11-11T11:20:22;94437.50;;;8.87;100.00
40592;BME280;26301;42.832;23.918;2022-11-11T11:22:54;94439.75;;;8.97;100.00
40592;BME280;26301;42.832;23.918;2022-11-11T11:25:24;94420.44;;;8.80;100.00
40592;BME280;26301;42.832;23.918;2022-11-11T11:27:52;94444.66;;;8.85;100.00
40592;BME280;26301;42.832;23.918;2022-11-11T11:30:28;94440.69;;;8.89;100.00
40592;BME280;26301;42.832;23.918;2022-11-11T11:32:59;94418.75;;;8.59;100.00
40592;BME280;26301;42.832;23.918;2022-11-11T11:35:40;94437.88;;;8.78;100.00
40592;BME280;26301;42.832;23.918;2022-11-11T11:38:09;94436.66;;;8.74;100.00
40592;BME280;26301;42.832;23.918;2022-11-11T11:43:31;94439.34;;;9.00;100.00
40592;BME280;26301;42.832;23.918;2022-11-11T11:46:00;94442.13;;;9.05;100.00
40592;BME280;26301;42.832;23.918;2022-11-11T11:54:33;94431.88;;;9.32;100.00
40592;BME280;26301;42.832;23.918;2022-11-11T11:57:08;94412.22;;;9.11;100.00
40592;BME280;26301;42.832;23.918;2022-11-11T11:59:52;94425.94;;;9.31;100.00
40592;BME280;26301;42.832;23.918;2022-11-11T12:02:36;94404.09;;;9.14;100.00
40592;BME280;26301;42.832;23.918;2022-11-11T12:10:42;94422.56;;;9.31;100.00
40592;BME280;26301;42.832;23.918;2022-11-11T12:21:27;94430.91;;;9.39;100.00
40592;BME280;26301;42.832;23.918;2022-11-11T12:26:57;94426.78;;;9.45;100.00
40592;BME280;26301;42.832;23.918;2022-11-11T12:38:00;94422.97;;;9.41;100.00
40592;BME280;26301;42.832;23.918;2022-11-11T12:43:28;94418.22;;;9.38;100.00
40592;BME280;26301;42.832;23.918;2022-11-11T12:46:27;94429.91;;;9.41;100.00
40592;BME280;26301;42.832;23.918;2022-11-11T12:51:52;94395.19;;;9.23;100.00
40592;BME280;26301;42.832;23.918;2022-11-11T12:54:45;94422.75;;;9.29;100.00
40592;BME280;26301;42.832;23.918;2022-11-11T12:57:38;94424.34;;;9.24;100.00
40592;BME280;26301;42.832;23.918;2022-11-11T13:00:20;94394.72;;;8.93;100.00
40592;BME280;26301;42.832;23.918;2022-11-11T13:05:36;94399.09;;;8.99;100.00
40592;BME280;26301;42.832;23.918;2022-11-11T13:08:16;94422.34;;;9.19;100.00
40592;BME280;26301;42.832;23.918;2022-11-11T13:13:42;94422.50;;;9.11;100.00
40592;BME280;26301;42.832;23.918;2022-11-11T13:16:11;94365.72;;;8.78;100.00
40592;BME280;26301;42.832;23.918;2022-11-11T13:19:02;94422.09;;;8.94;100.00
40592;BME280;26301;42.832;23.918;2022-11-11T13:24:12;94423.81;;;8.80;100.00
40592;BME280;26301;42.832;23.918;2022-11-11T13:26:44;94396.00;;;8.69;100.00
40592;BME280;26301;42.832;23.918;2022-11-11T13:31:57;94415.72;;;8.90;100.00
40592;BME280;26301;42.832;23.918;2022-11-11T13:34:26;94415.53;;;8.85;100.00
40592;BME280;26301;42.832;23.918;2022-11-11T13:37:01;94390.31;;;8.74;100.00
40592;BME280;26301;42.832;23.918;2022-11-11T13:39:28;94425.88;;;9.05;100.00
40592;BME280;26301;42.832;23.918;2022-11-11T13:41:56;94398.84;;;8.87;100.00
40592;BME280;26301;42.832;23.918;2022-11-11T13:44:32;94431.63;;;9.07;100.00
40592;BME280;26301;42.832;23.918;2022-11-11T13:47:06;94420.94;;;9.03;100.00
40592;BME280;26301;42.832;23.918;2022-11-11T13:49:45;94415.78;;;9.10;100.00
40592;BME280;26301;42.832;23.918;2022-11-11T13:52:26;94400.50;;;9.02;100.00
40592;BME280;26301;42.832;23.918;2022-11-11T13:54:59;94416.41;;;9.12;100.00
40592;BME280;26301;42.832;23.918;2022-11-11T13:57:27;94419.75;;;9.12;100.00
40592;BME280;26301;42.832;23.918;2022-11-11T14:00:02;94424.69;;;9.07;100.00
40592;BME280;26301;42.832;23.918;2022-11-11T14:02:29;94427.03;;;9.02;100.00
40592;BME280;26301;42.832;23.918;2022-11-11T14:07:58;94422.09;;;8.94;100.00
40592;BME280;26301;42.832;23.918;2022-11-11T14:12:51;94395.84;;;8.77;100.00
40592;BME280;26301;42.832;23.918;2022-11-11T14:15:40;94431.38;;;8.88;100.00
40592;BME280;26301;42.832;23.918;2022-11-11T14:20:46;94401.00;;;8.70;100.00
40592;BME280;26301;42.832;23.918;2022-11-11T14:23:29;94426.84;;;8.97;100.00
40592;BME280;26301;42.832;23.918;2022-11-11T14:28:41;94407.41;;;8.88;100.00
40592;BME280;26301;42.832;23.918;2022-11-11T14:33:53;94400.63;;;8.80;100.00
40592;BME280;26301;42.832;23.918;2022-11-11T14:36:31;94435.16;;;8.99;100.00
40592;BME280;26301;42.832;23.918;2022-11-11T14:49:51;94410.16;;;8.93;100.00
40592;BME280;26301;42.832;23.918;2022-11-11T14:52:40;94429.84;;;9.01;100.00
40592;BME280;26301;42.832;23.918;2022-11-11T15:00:30;94410.94;;;8.87;100.00
40592;BME280;26301;42.832;23.918;2022-11-11T15:03:08;94419.06;;;8.84;100.00